Forside
METAR-TAF:

METAR-TAF

Lufthavne :

Iowa City Municipal Airport

Iowa City, Iowa, USA

Breddekreds: 41-37-58N, længdekreds: 091-32-35W, højde: 203 m

Aktuelle vejr

Denne rapport blev lavet for 47 minutter siden, kl. 05:52 UTC
Vind 10 kt fra øst med vindstød på up til 21 kt
Temperatur 11°C
Fugtighed 76%
Tryk 1018 hPa
Sigt: 16.1 km
Overskyet i en højde af 9000 ft

METAR: KIOW 210552Z AUTO 09010G21KT 10SM OVC090 11/07 A3005 RMK AO2 SLP177 60001 T01060072 10133 20100 401440061 58024 $

Tid: 01:39 (06:39 UTC)


TAF: fraværende

Vejrobservationer og prognoser fra mere end 4000 lufthavne (METAR og TAF).

De gule og røde prikker repræsenterer de meteorologiske stationer.

Flyt musen over at se navnet på stationen.

Så klik over at se vejr observationer og prognoser.

At skifte det kort: Klik på de grønne knapper med et sort kors for at zoome ind; på den grønne knap med en bindestreg for at zoome ud; eller på de grønne pile for tilstødende kort.


METAR-TAF: